Portada
METAR-TAF:

METAR-TAF

Aeroports :

Salalah, Oman

latitud: 17-02N, longitud: 054-05E, altitud: 20 m

Observació

L'informe es va fer fa 20 minuts, a les 19:50 UTC
Vent 3 kt del Est/Nord-Est, variant entre Nord/Nord-Est i Est
Temperatura 26°C
Humitat 70%
Pressió 1015 hPa
Visibilitat 10 km o més
Núvols disperses a una alçada de 2500 ft

METAR: OOSA 131950Z 06003KT 020V090 9999 SCT025 26/20 Q1015 NOSIG

Hora: 00:10 (20:10 UTC)

Pronòstic

L'informe es va fer fa 2 hores i 30 minuts, a les 17:40 UTC
Pronòstic vàlid del 13 a les 18 UTC al 15 a les 00 UTC
Vent 3 kt amb direcció variable
Visibilitat 10 km o més
Cel ennuvolat a una alçada de 2500 ft
Evolucionant progressivament
l' 14 a les 07 UTC al 14 a les 09 UTC
Vent 10 kt del Sud/Sud-Est
Evolucionant progressivament
l' 14 a les 17 UTC al 14 a les 19 UTC
Vent 3 kt amb direcció variable

TAF: OOSA 131740Z 1318/1500 VRB03KT 9999 BKN025 BECMG 1407/1409 15010KT BECMG 1417/1419 VRB03KT

Observacions i pronòstics meteorològics de més de 4000 aeroports (METAR i TAF).

Les estacions disponibles són els punts grocs i vermells al mapa.

Posi el ratolí al punt desitjat per veure el nom de l'estació.

Feu clic per veure les observacions i els pronòstics meteorològics.

Per canviar el mapa: feu clic els botons verds amb una creu de color negre per apropar; al botó verd amb un guió per allunyar la imatge; o en les fletxes verdes per a mapes adjacents.


METAR-TAF: